Trempealeau, WI (54661)

7:22 AM CDT on May 24, 2015 (GMT -0500)
MNDOT | | Change Station
CLOSE
Current Station
Personal Weather Station
Location: Homer, MN
Elevation: 1318 ft
Nearby Weather Stations

Elev 1318 ft 43.91 °N, 91.54 °W | Updated 17 minutes ago

Overcast
Overcast
58 °F
Feels Like 58 °F
N
4
Wind Variable Wind from East
Gusts 4.0 mph

Today
High -- | Low -- °F
--% Chance of Precip.
Yesterday
High -- | Low -- °F
Precip. -- in
5:31 AM 8:34 PM
Waxing Crescent, 38% visible
Pressure 30.07 in
Visibility 10.0 miles
Clouds Overcast 11000 ft
Dew Point 48 °F
Humidity 68%
Rainfall in
Snow Depth Not available.
UV 0 out of 12
Pollen 3.40 out of 12
Air Quality Not available.
Flu Activity Sporadic
METAR KLSE 241153Z 12005KT 10SM OVC110 15/10 A3009 RMK AO2 SLP183 T01500100 10161 20139 56014

More Conditions Fewer Conditions

Pressure 30.07 in
Visibility 10.0 miles
Clouds Overcast 11000 ft
Dew Point 48 °F
Humidity 68%
Rainfall in
Snow Depth Not available.
UV 0 out of 12
Pollen 3.40 out of 12
Air Quality Not available.
Flu Activity Sporadic
METAR KLSE 241153Z 12005KT 10SM OVC110 15/10 A3009 RMK AO2 SLP183 T01500100 10161 20139 56014

More Conditions Fewer Conditions

10-Day Weather Forecast

Almanac

Astronomy

May. 24, 2015 Rise Set
Actual Time
Civil Twilight
Nautical Twilight
Astronomical Twilight
Moon
Length of Visible Light
Length of Day
Tomorrow will be .
, % of the Moon is Illuminated

Today's Extremes

State Highs State Lows

Community

WunderPhotos

Upload Photos

1,823,724 photos uploaded!

WunderBlogs® & News

Nearby

Air Quality

  Air Quality AQ Index Pollutant
Not available.

Snow Depth

Station Depth Elevation

Earthquake Activity

City Distance Mag. Time & Date
Minimum magnitude displayed is 2.5.

Coastal Water Temperatures

Place Temperature

Stations

Nearby Weather Stations

Station Location Temp. Windchill Dew Point Humidity Wind Precip. Elev Updated Type